This is the latest recevied weather packets stored in our database for station/object SQ7FJB-2. If no packets are shown the sender has not sent any weather packets the latest 1 day(s).
| Time | Temp. | Humidity | Pressure | Rain* | Wind** | Luminosity | Snow |
|---|---|---|---|---|---|---|---|
| 1778099155 | 14.44° C | 77% | 1004.6 hPa | 0 mm | - | - | - |
| 1778097344 | 15° C | 76% | 1004.7 hPa | 0 mm | - | - | - |
| 1778096130 | 15° C | 74% | 1004.8 hPa | 0 mm | - | - | - |
| 1778093705 | 16.11° C | 73% | 1004.5 hPa | 0 mm | - | - | - |
| 1778093104 | 16.11° C | 72% | 1004.5 hPa | 0 mm | - | - | - |
| 1778089479 | 19.44° C | 65% | 1004 hPa | 0 mm | - | - | - |
| 1778088267 | 20.56° C | 57% | 1004 hPa | 0 mm | - | - | - |
| 1778086442 | 21.67° C | 48% | 1004 hPa | 0 mm | - | - | - |
| 1778083404 | 22.78° C | 44% | 1004.2 hPa | 0 mm | - | - | - |
| 1778082792 | 23.33° C | 44% | 1004.2 hPa | 0 mm | - | - | - |
| 1778080967 | 23.33° C | 43% | 1004.3 hPa | 0 mm | - | - | - |
| 1778080354 | 23.89° C | 46% | 1004.3 hPa | 0 mm | - | - | - |
| 1778079742 | 23.89° C | 44% | 1004.3 hPa | 0 mm | - | - | - |
| 1778079142 | 24.44° C | 39% | 1004.3 hPa | 0 mm | - | - | - |
| 1778078542 | 25° C | 40% | 1004.3 hPa | 0 mm | - | - | - |
| 1778076729 | 23.89° C | 43% | 1004.4 hPa | 0 mm | - | - | - |
| 1778076129 | 23.89° C | 42% | 1004.4 hPa | 0 mm | - | - | - |
| 1778075517 | 23.33° C | 42% | 1004.4 hPa | 0 mm | - | - | - |
| 1778074917 | 22.78° C | 45% | 1004.4 hPa | 0 mm | - | - | - |
| 1778073092 | 24.44° C | 40% | 1004.4 hPa | 0 mm | - | - | - |
| 1778062204 | 21.67° C | 50% | 1004.6 hPa | 0 mm | - | - | - |
| 1778061592 | 21.67° C | 50% | 1004.6 hPa | 0 mm | - | - | - |
| 1778059779 | 21.11° C | 52% | 1004.5 hPa | 0 mm | - | - | - |
| 1778059167 | 21.67° C | 50% | 1004.5 hPa | 0 mm | - | - | - |
| 1778058554 | 21.67° C | 51% | 1004.5 hPa | 0 mm | - | - | - |
* Rain latest hour (hover to see other rain measurements)
** Current wind speed in m/s (hover to see current wind gust speed)